createdAt,value
2022-08-16T00:01:33.915Z,1.88
2022-08-16T00:04:00.744Z,2.28
2022-08-16T00:06:27.517Z,1.83
2022-08-16T00:08:53.842Z,1.90
2022-08-16T00:11:20.732Z,1.80
2022-08-16T00:13:54.105Z,1.75
2022-08-16T00:17:01.327Z,1.98
2022-08-16T00:19:22.580Z,1.90
2022-08-16T00:21:53.068Z,2.25
2022-08-16T00:24:32.263Z,1.60
2022-08-16T00:26:59.979Z,1.70
2022-08-16T00:29:27.329Z,1.77
2022-08-16T00:32:00.336Z,2.33
2022-08-16T00:34:41.856Z,2.25
2022-08-16T00:37:20.145Z,1.92
2022-08-16T00:39:47.836Z,2.33
2022-08-16T00:42:30.483Z,1.85
2022-08-16T00:45:18.152Z,2.28
2022-08-16T00:50:36.012Z,2.20
2022-08-16T00:53:04.010Z,2.55
2022-08-16T00:55:37.514Z,2.22
2022-08-16T00:58:04.640Z,2.15
2022-08-16T01:00:40.229Z,2.38
2022-08-16T01:03:11.694Z,2.92
2022-08-16T01:05:39.419Z,2.33
2022-08-16T01:08:35.342Z,2.45
2022-08-16T01:10:53.028Z,2.25
2022-08-16T01:13:26.782Z,2.45
2022-08-16T01:16:01.149Z,2.50
2022-08-16T01:18:39.023Z,2.08
2022-08-16T01:21:24.877Z,2.30
2022-08-16T01:24:52.467Z,2.13
2022-08-16T01:27:03.965Z,1.70
2022-08-16T01:29:59.073Z,2.13
2022-08-16T01:32:31.442Z,2.22
2022-08-16T01:35:00.267Z,2.97
2022-08-16T01:37:27.106Z,2.42
2022-08-16T01:40:02.784Z,2.40
2022-08-16T01:42:33.711Z,1.98
2022-08-16T01:45:00.556Z,2.47
2022-08-16T01:47:27.734Z,2.28
2022-08-16T01:50:59.584Z,2.35
2022-08-16T01:52:42.473Z,2.05
2022-08-16T01:55:13.010Z,1.90
2022-08-16T01:57:41.535Z,2.53
2022-08-16T02:00:20.770Z,2.35
2022-08-16T02:02:56.333Z,1.98
2022-08-16T02:05:23.565Z,2.40
2022-08-16T02:07:51.993Z,2.35
2022-08-16T02:10:18.774Z,2.40
2022-08-16T02:12:51.346Z,2.30
2022-08-16T02:15:25.951Z,2.42
2022-08-16T02:17:53.754Z,2.13
2022-08-16T02:20:20.209Z,2.00
2022-08-16T02:22:52.880Z,2.60
2022-08-16T02:25:21.783Z,2.05
2022-08-16T02:27:51.037Z,2.78
2022-08-16T02:30:36.539Z,2.53
2022-08-16T02:33:08.368Z,2.20
2022-08-16T02:35:54.093Z,2.47
2022-08-16T02:38:21.788Z,2.20
2022-08-16T02:40:48.436Z,1.90
2022-08-16T02:43:15.206Z,2.00
2022-08-16T02:45:41.619Z,2.10
2022-08-16T02:48:28.983Z,2.10
2022-08-16T02:51:06.043Z,1.92
2022-08-16T02:53:38.430Z,1.83
2022-08-16T02:56:09.871Z,2.15
2022-08-16T02:58:36.646Z,2.05
2022-08-16T03:01:03.174Z,2.13
2022-08-16T03:04:39.614Z,1.70
2022-08-16T03:06:39.132Z,1.80
2022-08-16T03:09:08.862Z,1.75
2022-08-16T03:11:39.678Z,1.70
2022-08-16T03:14:07.469Z,1.95
2022-08-16T03:16:39.178Z,1.90
2022-08-16T03:19:08.661Z,2.10
2022-08-16T03:21:38.178Z,2.10
2022-08-16T03:24:29.300Z,2.25
2022-08-16T03:26:58.684Z,2.15
2022-08-16T03:29:30.550Z,2.10
2022-08-16T03:31:59.132Z,2.20
2022-08-16T03:34:26.111Z,1.95
2022-08-16T03:36:52.429Z,1.80
2022-08-16T03:39:20.365Z,2.08
2022-08-16T03:41:50.305Z,1.80
2022-08-16T03:44:44.973Z,1.55
2022-08-16T03:47:04.397Z,1.90
2022-08-16T03:49:36.475Z,1.95
2022-08-16T03:52:03.986Z,2.15
2022-08-16T03:54:30.418Z,1.85
2022-08-16T03:56:58.614Z,2.33
2022-08-16T03:59:25.967Z,2.28
2022-08-16T04:01:56.436Z,2.40
2022-08-16T04:04:32.363Z,2.17
2022-08-16T04:07:00.037Z,2.13
2022-08-16T04:09:26.449Z,2.13
2022-08-16T04:11:52.795Z,2.40
2022-08-16T04:14:32.302Z,1.90
2022-08-16T04:17:00.949Z,2.30
2022-08-16T04:19:31.669Z,2.05
2022-08-16T04:21:58.559Z,1.90
2022-08-16T04:24:28.900Z,2.10
2022-08-16T04:26:55.406Z,1.88
2022-08-16T04:29:25.021Z,2.38
2022-08-16T04:31:56.785Z,2.10
2022-08-16T04:34:26.584Z,2.08
2022-08-16T04:36:53.576Z,2.05
2022-08-16T04:39:20.324Z,2.50
2022-08-16T04:41:56.873Z,2.38
2022-08-16T04:44:32.686Z,2.38
2022-08-16T04:47:21.722Z,2.20
2022-08-16T04:49:52.298Z,2.30
2022-08-16T04:52:33.894Z,2.10
2022-08-16T04:55:07.878Z,2.30
2022-08-16T04:57:34.758Z,2.33
2022-08-16T05:00:31.694Z,1.80
2022-08-16T05:02:54.963Z,2.22
2022-08-16T05:05:23.464Z,2.20
2022-08-16T05:07:59.427Z,2.65
2022-08-16T05:10:27.628Z,2.28
2022-08-16T05:12:53.987Z,2.08
2022-08-16T05:15:20.468Z,2.63
2022-08-16T05:17:48.765Z,2.55
2022-08-16T05:20:39.238Z,3.17
2022-08-16T05:23:12.166Z,2.30
2022-08-16T05:25:41.037Z,2.15
2022-08-16T05:28:14.646Z,2.28
2022-08-16T05:30:41.332Z,2.25
2022-08-16T05:33:16.703Z,2.20
2022-08-16T05:35:44.760Z,2.25
2022-08-16T05:38:33.515Z,2.03
2022-08-16T05:41:05.717Z,2.20
2022-08-16T05:43:43.787Z,2.00
2022-08-16T05:46:30.211Z,2.20
2022-08-16T05:49:03.735Z,2.25
2022-08-16T05:51:37.682Z,2.13
2022-08-16T05:54:05.626Z,2.22
2022-08-16T05:56:31.955Z,1.88
2022-08-16T05:59:00.606Z,2.05
2022-08-16T06:01:27.881Z,2.63
2022-08-16T06:03:59.267Z,2.28
2022-08-16T06:06:28.010Z,2.20
2022-08-16T06:08:55.587Z,2.08
2022-08-16T06:11:22.167Z,2.17
2022-08-16T06:13:51.922Z,2.50
2022-08-16T06:16:22.073Z,2.70
2022-08-16T06:18:53.620Z,2.20
2022-08-16T06:21:22.538Z,1.95
2022-08-16T06:23:51.138Z,2.08
2022-08-16T06:26:20.914Z,1.80
2022-08-16T06:28:47.345Z,2.00
2022-08-16T06:31:14.114Z,1.73
2022-08-16T06:33:42.315Z,1.88
2022-08-16T06:36:13.850Z,1.98
2022-08-16T06:38:55.354Z,1.73
2022-08-16T06:41:23.101Z,1.77
2022-08-16T06:43:51.086Z,1.60
2022-08-16T06:46:22.904Z,1.92
2022-08-16T06:48:57.892Z,1.65
2022-08-16T06:51:24.898Z,2.08
2022-08-16T06:54:14.121Z,2.30
2022-08-16T06:56:41.060Z,2.05
2022-08-16T06:59:08.980Z,2.00
2022-08-16T07:01:45.220Z,1.65
2022-08-16T07:04:32.064Z,1.77
2022-08-16T07:07:00.100Z,2.20
2022-08-16T07:09:29.609Z,2.00
2022-08-16T07:11:56.231Z,2.20
2022-08-16T07:14:30.266Z,1.58
2022-08-16T07:16:58.226Z,1.70
2022-08-16T07:20:01.541Z,1.75
2022-08-16T07:22:38.178Z,1.90
2022-08-16T07:24:58.690Z,1.73
2022-08-16T07:27:25.768Z,1.50
2022-08-16T07:29:55.648Z,1.67
2022-08-16T07:32:29.275Z,1.58
2022-08-16T07:34:57.810Z,1.60
2022-08-16T07:37:24.452Z,2.13
2022-08-16T07:39:51.230Z,1.83
2022-08-16T07:42:20.342Z,1.80
2022-08-16T07:44:55.745Z,1.63
2022-08-16T07:47:24.729Z,1.77
2022-08-16T07:49:58.829Z,1.73
2022-08-16T07:52:29.984Z,1.67
2022-08-16T07:54:56.963Z,1.70
2022-08-16T07:57:24.083Z,2.00
2022-08-16T07:59:50.814Z,1.65
2022-08-16T08:02:19.727Z,1.90
2022-08-16T08:04:46.260Z,1.80
2022-08-16T08:07:12.796Z,2.38
2022-08-16T08:09:43.356Z,1.80
2022-08-16T08:12:10.161Z,1.70
2022-08-16T08:14:56.858Z,1.95
2022-08-16T08:17:23.210Z,1.98
2022-08-16T08:19:53.114Z,1.90
2022-08-16T08:22:22.177Z,2.03
2022-08-16T08:24:48.800Z,1.80
2022-08-16T08:27:23.058Z,1.70
2022-08-16T08:30:49.331Z,2.13
2022-08-16T08:32:57.450Z,1.92
2022-08-16T08:35:26.899Z,1.95
2022-08-16T08:37:56.410Z,3.13
2022-08-16T08:40:24.617Z,2.25
2022-08-16T08:42:57.650Z,1.80
2022-08-16T08:45:48.337Z,2.40
2022-08-16T08:48:35.011Z,1.70
2022-08-16T08:51:00.235Z,1.95
2022-08-16T08:53:30.476Z,2.05
2022-08-16T08:55:58.987Z,2.03
2022-08-16T08:58:25.806Z,2.33
2022-08-16T09:01:01.251Z,1.92
2022-08-16T09:03:28.113Z,2.47
2022-08-16T09:05:54.471Z,2.33
2022-08-16T09:08:22.211Z,2.22
2022-08-16T09:11:02.288Z,2.43
2022-08-16T09:13:32.630Z,2.00
2022-08-16T09:15:59.487Z,2.30
2022-08-16T09:18:35.674Z,2.30
2022-08-16T09:21:03.207Z,2.10
2022-08-16T09:23:36.441Z,2.00
2022-08-16T09:26:04.366Z,2.50
2022-08-16T09:29:14.774Z,2.42
2022-08-16T09:31:40.995Z,3.05
2022-08-16T09:34:07.844Z,2.63
2022-08-16T09:36:34.595Z,2.45
2022-08-16T09:39:03.412Z,2.40
2022-08-16T09:41:30.062Z,2.35
2022-08-16T09:43:59.662Z,2.25
2022-08-16T09:46:44.820Z,2.20
2022-08-16T09:49:12.834Z,2.35
2022-08-16T09:51:39.655Z,2.25
2022-08-16T09:54:09.611Z,2.22
2022-08-16T09:56:37.358Z,1.80
2022-08-16T09:59:08.189Z,2.05
2022-08-16T10:01:43.650Z,1.90
2022-08-16T10:04:34.342Z,2.38
2022-08-16T10:09:53.766Z,1.83
2022-08-16T10:12:42.626Z,2.17
2022-08-16T10:15:10.124Z,2.28
2022-08-16T10:17:42.495Z,2.20
2022-08-16T10:20:11.345Z,2.13
2022-08-16T10:22:44.960Z,2.20
2022-08-16T10:25:11.361Z,2.22
2022-08-16T10:28:26.198Z,2.25
2022-08-16T10:30:44.252Z,1.92
2022-08-16T10:33:13.532Z,2.42
2022-08-16T10:35:46.592Z,2.30
2022-08-16T10:38:26.985Z,2.60
2022-08-16T10:40:54.616Z,2.70
2022-08-16T10:43:21.363Z,2.45
2022-08-16T10:46:00.389Z,2.63
2022-08-16T10:48:28.656Z,2.58
2022-08-16T10:50:58.691Z,3.10
2022-08-16T10:53:32.745Z,2.42
2022-08-16T10:56:01.850Z,1.95
2022-08-16T10:58:33.993Z,2.22
2022-08-16T11:01:39.626Z,2.22
2022-08-16T11:03:49.102Z,2.40
2022-08-16T11:06:21.548Z,2.63
2022-08-16T11:09:21.035Z,2.17
2022-08-16T11:12:13.512Z,2.55
2022-08-16T11:14:26.122Z,2.10
2022-08-16T11:17:10.516Z,2.30
2022-08-16T11:20:00.666Z,2.30
2022-08-16T11:22:41.994Z,2.38
2022-08-16T11:25:12.505Z,2.40
2022-08-16T11:27:39.372Z,2.05
2022-08-16T11:30:09.151Z,2.40
2022-08-16T11:35:10.911Z,1.90
2022-08-16T11:40:32.837Z,2.50
2022-08-16T11:42:59.979Z,2.20
2022-08-16T11:45:26.342Z,2.45
2022-08-16T11:47:53.115Z,2.40
2022-08-16T11:50:19.556Z,2.60
2022-08-16T11:52:46.747Z,2.35
2022-08-16T11:55:13.290Z,2.65
2022-08-16T11:57:42.394Z,2.60
2022-08-16T12:00:33.819Z,3.10
2022-08-16T12:02:58.829Z,2.90
2022-08-16T12:05:25.163Z,2.45
2022-08-16T12:07:51.485Z,2.85
2022-08-16T12:10:19.520Z,2.53
2022-08-16T12:12:46.852Z,2.65
2022-08-16T12:15:13.951Z,2.65
2022-08-16T12:17:41.300Z,2.50
2022-08-16T12:20:15.903Z,2.83
2022-08-16T12:22:45.600Z,2.72
2022-08-16T12:25:15.569Z,2.88
2022-08-16T12:27:42.027Z,2.60
2022-08-16T12:30:21.767Z,2.75
2022-08-16T12:32:55.006Z,2.58
2022-08-16T12:35:25.495Z,2.40
2022-08-16T12:37:53.390Z,2.67
2022-08-16T12:40:25.196Z,2.60
2022-08-16T12:42:58.837Z,2.70
2022-08-16T12:45:27.113Z,2.72
2022-08-16T12:48:32.777Z,2.35
2022-08-16T12:50:58.610Z,2.53
2022-08-16T12:53:31.711Z,2.75
2022-08-16T12:55:58.213Z,2.60
2022-08-16T12:58:48.814Z,2.47
2022-08-16T13:01:11.378Z,2.50
2022-08-16T13:03:40.516Z,2.38
2022-08-16T13:06:07.244Z,2.60
2022-08-16T13:08:33.602Z,2.40
2022-08-16T13:11:00.594Z,2.63
2022-08-16T13:13:29.549Z,2.55
2022-08-16T13:16:03.765Z,2.55
2022-08-16T13:18:34.037Z,2.30
2022-08-16T13:21:01.721Z,2.55
2022-08-16T13:23:29.344Z,2.90
2022-08-16T13:25:57.258Z,2.55
2022-08-16T13:28:24.042Z,2.60
2022-08-16T13:30:52.045Z,2.72
2022-08-16T13:33:27.636Z,2.63
2022-08-16T13:35:57.726Z,2.60
2022-08-16T13:38:25.800Z,2.60
2022-08-16T13:40:56.794Z,2.92
2022-08-16T13:43:26.601Z,3.00
2022-08-16T13:45:53.393Z,2.70
2022-08-16T13:48:25.152Z,2.70
2022-08-16T13:50:53.567Z,2.63
2022-08-16T13:53:24.417Z,2.90
2022-08-16T13:55:57.604Z,2.53
2022-08-16T13:58:36.611Z,2.95
2022-08-16T14:01:04.495Z,2.67
2022-08-16T14:03:36.416Z,2.90
2022-08-16T14:06:03.815Z,2.90
2022-08-16T14:08:30.210Z,2.67
2022-08-16T14:10:56.952Z,2.80
2022-08-16T14:13:24.041Z,2.88
2022-08-16T14:15:50.423Z,2.72
2022-08-16T14:18:19.893Z,2.63
2022-08-16T14:20:48.762Z,2.53
2022-08-16T14:23:17.531Z,2.88
2022-08-16T14:28:20.594Z,2.30
2022-08-16T14:30:50.048Z,2.53
2022-08-16T14:33:17.757Z,2.90
2022-08-16T14:35:50.212Z,3.05
2022-08-16T14:38:19.127Z,2.72
2022-08-16T14:40:54.825Z,2.90
2022-08-16T14:43:22.279Z,2.88
2022-08-16T14:45:50.674Z,3.25
2022-08-16T14:48:21.494Z,2.83
2022-08-16T14:50:51.925Z,2.53
2022-08-16T14:53:18.324Z,2.72
2022-08-16T14:55:44.704Z,2.80
2022-08-16T14:58:19.573Z,2.90
2022-08-16T15:00:46.565Z,2.92
2022-08-16T15:03:12.951Z,2.55
2022-08-16T15:05:41.642Z,2.67
2022-08-16T15:08:08.609Z,2.33
2022-08-16T15:10:37.293Z,3.10
2022-08-16T15:13:09.548Z,2.92
2022-08-16T15:15:37.040Z,3.10
2022-08-16T15:18:04.583Z,2.80
2022-08-16T15:20:33.346Z,3.00
2022-08-16T15:23:01.344Z,2.85
2022-08-16T15:25:30.108Z,2.78
2022-08-16T15:27:57.098Z,2.83
2022-08-16T15:30:56.498Z,2.70
2022-08-16T15:33:15.075Z,3.10
2022-08-16T15:35:42.879Z,2.90
2022-08-16T15:38:09.867Z,3.90
2022-08-16T15:40:57.792Z,3.47
2022-08-16T15:43:27.192Z,3.50
2022-08-16T15:46:34.582Z,3.05
2022-08-16T15:49:10.281Z,3.00
2022-08-16T15:51:38.636Z,3.17
2022-08-16T15:54:28.898Z,2.97
2022-08-16T15:56:54.950Z,3.17
2022-08-16T15:59:22.465Z,3.38
2022-08-16T16:01:51.318Z,3.30
2022-08-16T16:04:22.856Z,3.13
2022-08-16T16:06:55.279Z,3.20
2022-08-16T16:09:34.653Z,2.90
2022-08-16T16:12:16.365Z,3.17
2022-08-16T16:14:50.727Z,3.08
2022-08-16T16:17:17.456Z,3.40
2022-08-16T16:19:44.050Z,3.33
2022-08-16T16:22:10.780Z,3.10
2022-08-16T16:24:39.831Z,3.15
2022-08-16T16:27:06.564Z,3.15
2022-08-16T16:29:37.123Z,3.25
2022-08-16T16:32:07.665Z,3.40
2022-08-16T16:34:35.427Z,3.20
2022-08-16T16:37:02.598Z,3.30
2022-08-16T16:39:29.126Z,3.10
2022-08-16T16:41:59.516Z,3.00
2022-08-16T16:44:33.629Z,2.95
2022-08-16T16:47:02.846Z,2.97
2022-08-16T16:49:29.284Z,2.90
2022-08-16T16:52:06.721Z,2.70
2022-08-16T16:54:35.576Z,2.90
2022-08-16T16:57:02.455Z,3.10
2022-08-16T16:59:28.971Z,3.35
2022-08-16T17:02:01.560Z,3.20
2022-08-16T17:04:45.125Z,3.17
2022-08-16T17:07:12.288Z,3.45
2022-08-16T17:09:40.486Z,3.45
2022-08-16T17:12:07.824Z,3.20
2022-08-16T17:14:42.682Z,3.05
2022-08-16T17:17:13.313Z,3.60
2022-08-16T17:19:41.496Z,3.40
2022-08-16T17:22:21.194Z,3.42
2022-08-16T17:24:50.316Z,3.15
2022-08-16T17:27:20.020Z,3.22
2022-08-16T17:29:59.955Z,3.20
2022-08-16T17:32:33.652Z,3.00
2022-08-16T17:35:17.552Z,3.00
2022-08-16T17:37:50.789Z,3.25
2022-08-16T17:40:41.036Z,3.15
2022-08-16T17:43:11.254Z,3.20
2022-08-16T17:45:39.158Z,3.25
2022-08-16T17:48:05.737Z,3.40
2022-08-16T17:50:32.094Z,3.40
2022-08-16T17:52:58.474Z,3.20
2022-08-16T17:55:29.258Z,3.17
2022-08-16T17:57:55.631Z,3.60
2022-08-16T18:00:22.741Z,3.90
2022-08-16T18:02:53.396Z,3.78
2022-08-16T18:05:20.312Z,3.90
2022-08-16T18:07:47.341Z,3.83
2022-08-16T18:10:28.169Z,3.47
2022-08-16T18:13:00.653Z,3.35
2022-08-16T18:15:27.624Z,3.50
2022-08-16T18:17:54.158Z,3.85
2022-08-16T18:20:40.442Z,3.60
2022-08-16T18:23:12.345Z,3.28
2022-08-16T18:25:43.247Z,3.83
2022-08-16T18:28:09.619Z,3.47
2022-08-16T18:30:35.968Z,3.53
2022-08-16T18:33:02.494Z,3.67
2022-08-16T18:35:29.402Z,3.47
2022-08-16T18:37:55.975Z,3.20
2022-08-16T18:40:22.352Z,3.45
2022-08-16T18:43:03.082Z,3.85
2022-08-16T18:45:35.687Z,3.83
2022-08-16T18:48:04.334Z,3.17
2022-08-16T18:50:59.149Z,3.90
2022-08-16T18:53:19.086Z,3.65
2022-08-16T18:55:46.206Z,4.20
2022-08-16T18:58:14.141Z,3.72
2022-08-16T19:00:50.612Z,3.28
2022-08-16T19:03:25.614Z,3.60
2022-08-16T19:05:55.757Z,3.65
2022-08-16T19:08:22.285Z,3.35
2022-08-16T19:10:49.494Z,4.05
2022-08-16T19:13:17.545Z,3.83
2022-08-16T19:15:44.813Z,3.92
2022-08-16T19:18:11.551Z,3.50
2022-08-16T19:20:38.762Z,4.03
2022-08-16T19:23:10.233Z,3.70
2022-08-16T19:25:48.312Z,4.25
2022-08-16T19:28:49.472Z,3.72
2022-08-16T19:31:04.740Z,3.40
2022-08-16T19:33:31.783Z,3.88
2022-08-16T19:35:58.113Z,3.70
2022-08-16T19:38:24.536Z,3.80
2022-08-16T19:40:50.890Z,3.75
2022-08-16T19:43:17.356Z,3.90
2022-08-16T19:45:46.115Z,3.75
2022-08-16T19:48:12.970Z,3.47
2022-08-16T19:50:39.454Z,3.80
2022-08-16T19:53:18.844Z,3.70
2022-08-16T19:55:47.333Z,3.83
2022-08-16T19:58:15.475Z,3.63
2022-08-16T20:00:45.638Z,3.72
2022-08-16T20:03:16.518Z,3.45
2022-08-16T20:05:43.550Z,3.78
2022-08-16T20:08:11.189Z,4.35
